マドリード/バラハス の空港の天気 - METARとTAF

マドリード・バラハス国際空港 ( LEMD / MAD ) - スペイン マドリード
飛行場実況気象(Metar)
観測時間04/21 18:30 CEST (04/21 16:30 UTC)
風向・風速北北東 4m/s
視程10km以上
天気現象
全天の8割程度の雲 雲底高度 1370m
気温12℃
湿度62%
気圧1010hPa
METARLEMD 211630Z 03008KT 350V070 9999 BKN045 12/05 Q1010 NOSIG
過去の天気等 Google飛行場航空写真 Wunderground天気予報

過去48時間のMETAR

飛行場予報(TAF)
発表時間: 4/21 13:00 CEST (4/21 11:00 UTC)
予報対象時間: 21日14時 CEST ~ 22日20時 CEST
風向・風速北東 5m/s
視程10km以上
全天の4割程度の雲 雲底高度 910m
全天の4割程度の雲 雲底高度 1830m
21日14時 CEST ~ 21日20時 CEST に 確率 40% で一時的に
風向・風速北東 8m/s 瞬間風速 13m/s
21日22時 CEST ~ 21日24時 CEST に徐々に
風向・風速不定 3m/s
22日16時 CEST ~ 22日20時 CEST に 確率 30% で一時的に
風向・風速南南東 3m/s 瞬間風速 8m/s
少しの塔状積雲 雲底高度 1220m
TAF LEMD 211100Z 2112/2218 04010KT 9999 SCT030 SCT060 TX18/2216Z TN08/2206Z
PROB40 TEMPO 2112/2118 04015G25KT
BECMG 2120/2122 VRB05KT
PROB30 TEMPO 2214/2218 16006G16KT FEW040TCU